createdAt,value
2017-09-06T00:00:56.771Z,38.50
2017-09-06T00:01:56.814Z,38.41
2017-09-06T00:02:56.861Z,38.79
2017-09-06T00:04:17.926Z,38.89
2017-09-06T00:04:56.947Z,38.89
2017-09-06T00:05:56.996Z,38.89
2017-09-06T00:06:57.036Z,38.89
2017-09-06T00:07:57.080Z,38.99
2017-09-06T00:08:57.126Z,38.79
2017-09-06T00:10:18.193Z,38.97
2017-09-06T00:10:57.214Z,38.70
2017-09-06T00:11:57.259Z,38.79
2017-09-06T00:12:57.304Z,38.79
2017-09-06T00:13:57.345Z,38.70
2017-09-06T00:14:57.388Z,38.60
2017-09-06T00:16:18.458Z,38.89
2017-09-06T00:16:57.479Z,38.60
2017-09-06T00:17:57.522Z,38.79
2017-09-06T00:18:57.566Z,38.79
2017-09-06T00:19:57.612Z,39.09
2017-09-06T00:20:57.655Z,38.79
2017-09-06T00:22:18.726Z,38.79
2017-09-06T00:22:57.743Z,38.70
2017-09-06T00:23:57.788Z,38.89
2017-09-06T00:24:57.832Z,38.79
2017-09-06T00:25:57.877Z,38.79
2017-09-06T00:26:57.921Z,38.89
2017-09-06T00:28:18.988Z,38.70
2017-09-06T00:28:58.010Z,38.79
2017-09-06T00:29:58.053Z,38.87
2017-09-06T00:30:58.099Z,38.79
2017-09-06T00:31:58.146Z,38.70
2017-09-06T00:32:58.187Z,38.50
2017-09-06T00:34:19.255Z,38.99
2017-09-06T00:34:58.277Z,38.79
2017-09-06T00:35:58.319Z,38.60
2017-09-06T00:36:58.364Z,38.79
2017-09-06T00:37:58.409Z,38.79
2017-09-06T00:38:58.453Z,38.70
2017-09-06T00:40:19.521Z,38.70
2017-09-06T00:40:58.541Z,39.18
2017-09-06T00:41:58.586Z,38.97
2017-09-06T00:42:58.633Z,38.89
2017-09-06T00:43:58.676Z,38.89
2017-09-06T00:44:58.719Z,38.89
2017-09-06T00:46:19.786Z,38.79
2017-09-06T00:46:58.807Z,38.70
2017-09-06T00:47:58.851Z,38.70
2017-09-06T00:48:58.895Z,38.89
2017-09-06T00:49:58.938Z,38.79
2017-09-06T00:50:58.988Z,38.79
2017-09-06T00:52:20.051Z,38.89
2017-09-06T00:52:59.071Z,38.89
2017-09-06T00:53:59.116Z,38.79
2017-09-06T00:54:59.159Z,39.09
2017-09-06T00:55:59.204Z,38.89
2017-09-06T00:56:59.252Z,38.79
2017-09-06T00:58:20.317Z,38.79
2017-09-06T00:58:59.336Z,38.79
2017-09-06T00:59:59.381Z,39.37
2017-09-06T01:00:59.427Z,38.99
2017-09-06T01:01:59.470Z,38.78
2017-09-06T01:02:59.514Z,38.79
2017-09-06T01:04:20.581Z,38.79
2017-09-06T01:04:59.602Z,38.99
2017-09-06T01:05:59.650Z,38.60
2017-09-06T01:06:59.691Z,38.79
2017-09-06T01:07:59.736Z,38.89
2017-09-06T01:08:59.780Z,38.79
2017-09-06T01:10:20.847Z,38.89
2017-09-06T01:10:59.867Z,38.89
2017-09-06T01:11:59.915Z,38.79
2017-09-06T01:12:59.956Z,38.50
2017-09-06T01:14:00.001Z,38.89
2017-09-06T01:15:00.044Z,39.18
2017-09-06T01:16:21.115Z,39.18
2017-09-06T01:17:00.132Z,38.60
2017-09-06T01:18:00.179Z,38.79
2017-09-06T01:19:00.222Z,38.79
2017-09-06T01:20:00.273Z,38.79
2017-09-06T01:21:00.314Z,38.99
2017-09-06T01:22:21.381Z,38.99
2017-09-06T01:23:00.406Z,39.26
2017-09-06T01:24:00.443Z,38.99
2017-09-06T01:25:00.489Z,39.09
2017-09-06T01:26:00.532Z,38.79
2017-09-06T01:27:00.577Z,38.99
2017-09-06T01:28:21.642Z,38.99
2017-09-06T01:29:00.664Z,38.99
2017-09-06T01:30:00.707Z,38.89
2017-09-06T01:31:00.751Z,38.79
2017-09-06T01:32:00.797Z,38.60
2017-09-06T01:33:00.841Z,39.18
2017-09-06T01:34:21.909Z,39.09
2017-09-06T01:35:00.930Z,38.99
2017-09-06T01:36:00.973Z,39.26
2017-09-06T01:37:01.019Z,39.09
2017-09-06T01:38:01.063Z,39.09
2017-09-06T01:39:01.105Z,39.37
2017-09-06T01:40:22.173Z,39.18
2017-09-06T01:41:01.194Z,38.89
2017-09-06T01:42:01.240Z,38.79
2017-09-06T01:43:01.282Z,38.79
2017-09-06T01:44:01.326Z,39.09
2017-09-06T01:45:01.372Z,38.89
2017-09-06T01:46:22.442Z,38.99
2017-09-06T01:47:01.460Z,38.79
2017-09-06T01:48:01.505Z,39.09
2017-09-06T01:49:01.547Z,38.99
2017-09-06T01:50:01.593Z,38.99
2017-09-06T01:51:01.636Z,39.09
2017-09-06T01:52:22.707Z,39.09
2017-09-06T01:53:01.723Z,39.09
2017-09-06T01:54:01.770Z,38.79
2017-09-06T01:55:01.815Z,38.79
2017-09-06T01:56:01.856Z,38.79
2017-09-06T01:57:01.900Z,38.79
2017-09-06T01:58:22.970Z,39.09
2017-09-06T01:59:01.993Z,39.18
2017-09-06T02:00:02.033Z,39.26
2017-09-06T02:01:02.083Z,39.18
2017-09-06T02:02:02.122Z,39.37
2017-09-06T02:03:02.166Z,39.18
2017-09-06T02:04:23.234Z,39.16
2017-09-06T02:05:02.254Z,38.99
2017-09-06T02:06:02.298Z,38.99
2017-09-06T02:07:02.342Z,39.18
2017-09-06T02:08:02.386Z,39.09
2017-09-06T02:09:02.432Z,39.37
2017-09-06T02:10:23.499Z,39.37
2017-09-06T02:11:02.522Z,39.16
2017-09-06T02:12:02.562Z,39.18
2017-09-06T02:13:02.610Z,39.09
2017-09-06T02:14:02.665Z,39.28
2017-09-06T02:15:02.697Z,39.28
2017-09-06T02:16:23.763Z,39.18
2017-09-06T02:17:02.784Z,39.28
2017-09-06T02:18:02.832Z,39.26
2017-09-06T02:19:02.871Z,39.26
2017-09-06T02:20:02.917Z,39.18
2017-09-06T02:21:02.962Z,39.18
2017-09-06T02:22:24.030Z,39.16
2017-09-06T02:23:03.051Z,39.26
2017-09-06T02:24:03.097Z,39.28
2017-09-06T02:25:03.137Z,39.18
2017-09-06T02:26:03.182Z,39.09
2017-09-06T02:27:03.224Z,39.37
2017-09-06T02:28:24.293Z,39.18
2017-09-06T02:29:03.314Z,39.37
2017-09-06T02:30:03.362Z,39.26
2017-09-06T02:31:03.404Z,39.36
2017-09-06T02:32:03.448Z,39.18
2017-09-06T02:33:03.493Z,39.18
2017-09-06T02:34:24.560Z,39.06
2017-09-06T02:35:03.579Z,39.28
2017-09-06T02:36:03.624Z,39.18
2017-09-06T02:37:03.668Z,39.37
2017-09-06T02:38:03.712Z,39.26
2017-09-06T02:39:03.756Z,39.26
2017-09-06T02:40:24.823Z,39.26
2017-09-06T02:41:03.844Z,39.16
2017-09-06T02:42:03.887Z,39.28
2017-09-06T02:43:03.932Z,39.26
2017-09-06T02:44:03.977Z,39.06
2017-09-06T02:45:04.021Z,39.16
2017-09-06T02:46:25.087Z,39.16
2017-09-06T02:47:04.107Z,39.26
2017-09-06T02:48:04.155Z,39.36
2017-09-06T02:49:04.196Z,39.26
2017-09-06T02:50:04.248Z,39.26
2017-09-06T02:51:04.284Z,39.26
2017-09-06T02:52:25.354Z,39.37
2017-09-06T02:53:04.375Z,39.26
2017-09-06T02:54:04.417Z,39.26
2017-09-06T02:55:04.460Z,39.36
2017-09-06T02:56:04.504Z,39.16
2017-09-06T02:57:04.551Z,39.26
2017-09-06T02:58:25.617Z,39.18
2017-09-06T02:59:04.637Z,39.37
2017-09-06T03:00:04.684Z,39.16
2017-09-06T03:01:04.726Z,39.16
2017-09-06T03:02:04.769Z,39.36
2017-09-06T03:03:04.815Z,39.18
2017-09-06T03:04:25.882Z,39.28
2017-09-06T03:05:04.904Z,39.16
2017-09-06T03:06:04.946Z,39.36
2017-09-06T03:07:04.989Z,39.36
2017-09-06T03:08:05.033Z,39.28
2017-09-06T03:09:05.079Z,39.16
2017-09-06T03:10:26.146Z,39.26
2017-09-06T03:11:05.167Z,39.18
2017-09-06T03:12:05.210Z,39.16
2017-09-06T03:13:05.258Z,39.26
2017-09-06T03:14:05.300Z,39.16
2017-09-06T03:15:05.344Z,39.26
2017-09-06T03:16:26.411Z,39.16
2017-09-06T03:17:05.448Z,39.18
2017-09-06T03:18:05.476Z,39.18
2017-09-06T03:19:05.519Z,39.26
2017-09-06T03:20:05.567Z,39.26
2017-09-06T03:21:05.608Z,39.06
2017-09-06T03:22:26.677Z,39.16
2017-09-06T03:23:05.695Z,39.36
2017-09-06T03:24:05.740Z,39.26
2017-09-06T03:25:05.783Z,39.28
2017-09-06T03:26:05.829Z,39.16
2017-09-06T03:27:05.874Z,39.16
2017-09-06T03:28:26.940Z,39.18
2017-09-06T03:29:05.960Z,39.26
2017-09-06T03:30:06.006Z,39.37
2017-09-06T03:31:06.050Z,39.26
2017-09-06T03:32:06.092Z,39.16
2017-09-06T03:33:06.139Z,39.16
2017-09-06T03:34:27.205Z,39.16
2017-09-06T03:35:06.313Z,39.26
2017-09-06T03:36:06.406Z,39.36
2017-09-06T03:37:06.870Z,39.26
2017-09-06T03:38:06.373Z,39.16
2017-09-06T03:39:06.416Z,39.26
2017-09-06T03:40:27.469Z,39.26
2017-09-06T03:41:06.502Z,39.26
2017-09-06T03:42:06.538Z,39.28
2017-09-06T03:43:06.579Z,39.16
2017-09-06T03:44:06.622Z,39.26
2017-09-06T03:45:06.665Z,39.36
2017-09-06T03:46:27.734Z,39.26
2017-09-06T03:47:06.753Z,39.26
2017-09-06T03:48:06.801Z,39.26
2017-09-06T03:49:06.843Z,39.26
2017-09-06T03:50:06.892Z,39.18
2017-09-06T03:51:06.930Z,39.16
2017-09-06T03:52:27.997Z,39.36
2017-09-06T03:53:07.018Z,39.26
2017-09-06T03:54:07.062Z,39.16
2017-09-06T03:55:07.105Z,39.26
2017-09-06T03:56:07.151Z,39.26
2017-09-06T03:57:07.196Z,39.26
2017-09-06T03:58:28.263Z,39.16
2017-09-06T03:59:07.282Z,39.16
2017-09-06T04:00:07.326Z,39.26
2017-09-06T04:01:07.370Z,39.45
2017-09-06T04:02:07.424Z,39.45
2017-09-06T04:03:07.459Z,39.16
2017-09-06T04:04:28.527Z,39.45
2017-09-06T04:05:07.549Z,39.36
2017-09-06T04:06:07.591Z,39.16
2017-09-06T04:07:07.637Z,39.26
2017-09-06T04:08:07.679Z,39.26
2017-09-06T04:09:07.723Z,39.16
2017-09-06T04:10:28.792Z,39.16
2017-09-06T04:11:07.811Z,39.16
2017-09-06T04:12:07.859Z,39.26
2017-09-06T04:13:07.901Z,39.45
2017-09-06T04:14:07.947Z,39.36
2017-09-06T04:15:07.986Z,39.36
2017-09-06T04:16:29.054Z,39.36
2017-09-06T04:17:08.087Z,39.16
2017-09-06T04:18:08.123Z,39.26
2017-09-06T04:19:08.163Z,39.16
2017-09-06T04:20:08.206Z,39.16
2017-09-06T04:21:08.252Z,39.36
2017-09-06T04:22:29.319Z,39.16
2017-09-06T04:23:08.338Z,39.16
2017-09-06T04:24:08.384Z,39.16
2017-09-06T04:25:08.430Z,39.06
2017-09-06T04:26:08.472Z,39.26
2017-09-06T04:27:08.516Z,39.26
2017-09-06T04:28:29.583Z,39.16
2017-09-06T04:29:08.604Z,39.16
2017-09-06T04:30:08.761Z,39.16
2017-09-06T04:31:08.693Z,39.45
2017-09-06T04:32:08.736Z,39.45
2017-09-06T04:33:08.830Z,39.45
2017-09-06T04:34:29.851Z,39.16
2017-09-06T04:35:08.868Z,39.26
2017-09-06T04:36:08.912Z,39.16
2017-09-06T04:37:08.956Z,39.26
2017-09-06T04:38:09.002Z,39.36
2017-09-06T04:39:09.046Z,39.16
2017-09-06T04:40:30.113Z,39.16
2017-09-06T04:41:09.133Z,39.26
2017-09-06T04:42:09.176Z,39.45
2017-09-06T04:43:09.219Z,39.36
2017-09-06T04:44:09.267Z,39.45
2017-09-06T04:45:09.309Z,39.36
2017-09-06T04:46:30.376Z,39.36
2017-09-06T04:47:09.395Z,39.45
2017-09-06T04:48:09.479Z,39.36
2017-09-06T04:49:09.484Z,39.26
2017-09-06T04:50:09.530Z,39.36
2017-09-06T04:51:09.573Z,39.36
2017-09-06T04:52:30.641Z,39.45
2017-09-06T04:53:09.662Z,39.36
2017-09-06T04:54:09.707Z,39.26
2017-09-06T04:55:09.749Z,39.36
2017-09-06T04:56:09.793Z,39.16
2017-09-06T04:57:09.839Z,39.45
2017-09-06T04:58:30.907Z,39.06
2017-09-06T04:59:09.927Z,39.16
2017-09-06T05:00:09.970Z,39.16
2017-09-06T05:01:10.016Z,39.16
2017-09-06T05:02:10.070Z,39.16
2017-09-06T05:03:10.101Z,39.16
2017-09-06T05:04:31.173Z,39.06
2017-09-06T05:05:10.189Z,39.36
2017-09-06T05:06:10.235Z,39.45
2017-09-06T05:07:10.278Z,39.16
2017-09-06T05:08:10.320Z,39.26
2017-09-06T05:09:10.370Z,39.45
2017-09-06T05:10:31.432Z,39.16
2017-09-06T05:11:10.453Z,39.45
2017-09-06T05:12:10.534Z,39.26
2017-09-06T05:13:10.544Z,39.55
2017-09-06T05:14:10.588Z,39.45
2017-09-06T05:15:10.641Z,39.36
2017-09-06T05:16:31.698Z,39.16
2017-09-06T05:17:10.718Z,39.45
2017-09-06T05:18:10.762Z,39.16
2017-09-06T05:19:10.805Z,39.16
2017-09-06T05:20:10.850Z,39.06
2017-09-06T05:21:10.893Z,39.45
2017-09-06T05:22:31.967Z,39.36
2017-09-06T05:23:10.981Z,39.36
2017-09-06T05:24:11.028Z,38.97
2017-09-06T05:25:11.070Z,39.64
2017-09-06T05:26:11.113Z,39.36
2017-09-06T05:27:11.156Z,39.26
2017-09-06T05:28:32.223Z,39.26
2017-09-06T05:29:11.261Z,39.06
2017-09-06T05:30:11.288Z,39.45
2017-09-06T05:31:11.331Z,38.97
2017-09-06T05:32:11.379Z,39.16
2017-09-06T05:33:11.421Z,38.97
2017-09-06T05:34:32.586Z,39.45
2017-09-06T05:35:11.514Z,38.87
2017-09-06T05:36:11.586Z,39.16
2017-09-06T05:37:11.597Z,39.26
2017-09-06T05:38:11.642Z,39.45
2017-09-06T05:39:11.691Z,39.36
2017-09-06T05:40:32.751Z,40.90
2017-09-06T05:41:11.773Z,40.71
2017-09-06T05:42:11.824Z,42.35
2017-09-06T05:43:11.863Z,43.15
2017-09-06T05:44:11.904Z,43.15
2017-09-06T05:45:11.973Z,44.67
2017-09-06T05:46:33.019Z,45.25
2017-09-06T05:47:12.034Z,45.86
2017-09-06T05:48:12.099Z,46.32
2017-09-06T05:49:12.125Z,46.51
2017-09-06T05:50:12.170Z,47.09
2017-09-06T05:51:12.213Z,47.77
2017-09-06T05:52:33.280Z,48.74
2017-09-06T05:53:12.303Z,48.54
2017-09-06T05:54:12.345Z,48.93
2017-09-06T05:55:12.392Z,49.32
2017-09-06T05:56:12.432Z,49.99
2017-09-06T05:57:12.480Z,50.76
2017-09-06T05:58:33.655Z,51.15
2017-09-06T05:59:12.564Z,51.54
2017-09-06T06:00:12.681Z,52.02
2017-09-06T06:01:12.761Z,51.93
2017-09-06T06:02:12.697Z,52.89
2017-09-06T06:03:12.742Z,52.61
2017-09-06T06:04:33.918Z,52.70
2017-09-06T06:05:12.901Z,52.99
2017-09-06T06:06:12.976Z,52.39
2017-09-06T06:07:12.919Z,52.99
2017-09-06T06:08:12.961Z,52.70
2017-09-06T06:09:13.004Z,52.77
2017-09-06T06:10:34.166Z,52.39
2017-09-06T06:11:13.090Z,52.61
2017-09-06T06:12:13.137Z,52.22
2017-09-06T06:13:13.246Z,52.70
2017-09-06T06:14:13.224Z,52.61
2017-09-06T06:15:13.266Z,52.51
2017-09-06T06:16:34.334Z,52.80
2017-09-06T06:17:14.417Z,52.99
2017-09-06T06:18:13.400Z,53.67
2017-09-06T06:19:20.974Z,53.79
2017-09-06T06:20:29.477Z,53.47
2017-09-06T06:21:13.531Z,54.57
2017-09-06T06:22:34.602Z,53.99
2017-09-06T06:23:13.713Z,53.99
2017-09-06T06:24:13.724Z,53.41
2017-09-06T06:25:13.828Z,53.59
2017-09-06T06:26:13.755Z,53.31
2017-09-06T06:27:14.528Z,53.79
2017-09-06T06:28:34.913Z,53.50
2017-09-06T06:29:13.943Z,53.72
2017-09-06T06:30:13.965Z,52.85
2017-09-06T06:31:14.111Z,52.95
2017-09-06T06:32:14.061Z,52.46
2017-09-06T06:33:14.126Z,52.56
2017-09-06T06:34:35.174Z,52.85
2017-09-06T06:35:14.175Z,52.75
2017-09-06T06:36:14.258Z,53.04
2017-09-06T06:37:14.284Z,52.85
2017-09-06T06:38:14.340Z,52.17
2017-09-06T06:39:14.384Z,52.49
2017-09-06T06:40:35.433Z,52.49
2017-09-06T06:41:14.511Z,52.08
2017-09-06T06:42:14.505Z,52.00
2017-09-06T06:43:15.459Z,51.98
2017-09-06T06:44:14.615Z,51.42
2017-09-06T06:45:14.650Z,51.62
2017-09-06T06:46:35.704Z,51.81
2017-09-06T06:47:14.735Z,52.08
2017-09-06T06:48:14.789Z,51.72
2017-09-06T06:49:14.829Z,51.81
2017-09-06T06:50:14.873Z,51.72
2017-09-06T06:51:14.907Z,52.00
2017-09-06T06:52:35.979Z,51.62
2017-09-06T06:53:15.052Z,51.81
2017-09-06T06:54:15.047Z,52.10
2017-09-06T06:55:15.090Z,52.10
2017-09-06T06:56:15.125Z,51.72
2017-09-06T06:57:15.191Z,52.00
2017-09-06T06:58:36.294Z,51.72
2017-09-06T06:59:15.287Z,51.62
2017-09-06T07:00:15.315Z,51.32
2017-09-06T07:01:15.360Z,51.90
2017-09-06T07:02:15.427Z,51.32
2017-09-06T07:03:15.452Z,51.52
2017-09-06T07:04:36.523Z,51.32
2017-09-06T07:05:15.503Z,51.54
2017-09-06T07:06:15.548Z,51.45
2017-09-06T07:07:15.595Z,51.45
2017-09-06T07:08:15.637Z,51.52
2017-09-06T07:09:15.686Z,51.93
2017-09-06T07:10:36.794Z,52.22
2017-09-06T07:11:15.778Z,51.25
2017-09-06T07:12:15.861Z,51.74
2017-09-06T07:13:15.905Z,51.35
2017-09-06T07:14:15.907Z,51.45
2017-09-06T07:15:16.015Z,51.16
2017-09-06T07:16:37.074Z,52.42
2017-09-06T07:17:16.100Z,51.93
2017-09-06T07:18:16.957Z,51.35
2017-09-06T07:19:16.169Z,51.54
2017-09-06T07:20:16.221Z,51.54
2017-09-06T07:21:16.250Z,51.54
2017-09-06T07:22:37.329Z,51.74
2017-09-06T07:23:16.384Z,51.93
2017-09-06T07:24:16.361Z,51.64
2017-09-06T07:25:16.406Z,51.32
2017-09-06T07:26:17.475Z,51.64
2017-09-06T07:27:16.511Z,51.93
2017-09-06T07:28:37.594Z,52.20
2017-09-06T07:29:16.613Z,51.84
2017-09-06T07:30:16.665Z,51.84
2017-09-06T07:31:16.708Z,51.74
2017-09-06T07:32:16.722Z,51.37
2017-09-06T07:33:16.765Z,50.89
2017-09-06T07:34:37.838Z,50.60
2017-09-06T07:35:16.856Z,50.41
2017-09-06T07:36:16.902Z,50.89
2017-09-06T07:37:16.947Z,50.50
2017-09-06T07:38:16.998Z,50.79
2017-09-06T07:39:17.039Z,50.89
2017-09-06T07:40:38.109Z,50.50
2017-09-06T07:41:17.129Z,50.79
2017-09-06T07:42:17.182Z,50.99
2017-09-06T07:43:17.219Z,50.62
2017-09-06T07:44:17.269Z,50.50
2017-09-06T07:45:17.316Z,50.79
2017-09-06T07:46:38.382Z,50.53
2017-09-06T07:47:17.404Z,50.04
2017-09-06T07:48:17.456Z,49.39
2017-09-06T07:49:17.509Z,48.35
2017-09-06T07:50:17.547Z,48.73
2017-09-06T07:51:17.589Z,48.15
2017-09-06T07:52:38.664Z,48.44
2017-09-06T07:53:17.684Z,48.25
2017-09-06T07:54:17.728Z,48.35
2017-09-06T07:55:17.777Z,48.35
2017-09-06T07:56:17.832Z,48.35
2017-09-06T07:57:17.870Z,48.35
2017-09-06T07:58:38.977Z,48.35
2017-09-06T07:59:17.958Z,48.35
2017-09-06T08:00:19.046Z,48.44
2017-09-06T08:01:18.128Z,47.66
2017-09-06T08:02:18.140Z,48.25
2017-09-06T08:03:18.148Z,47.76
2017-09-06T08:04:39.218Z,47.47
2017-09-06T08:05:18.246Z,47.57
2017-09-06T08:06:18.287Z,47.40
2017-09-06T08:07:18.349Z,47.49
2017-09-06T08:08:18.381Z,47.59
2017-09-06T08:09:18.425Z,47.59
2017-09-06T08:10:39.499Z,47.20
2017-09-06T08:11:18.523Z,47.03
2017-09-06T08:12:18.574Z,46.55
2017-09-06T08:13:18.621Z,46.35
2017-09-06T08:14:18.660Z,46.42
2017-09-06T08:15:18.752Z,46.91
2017-09-06T08:16:39.834Z,46.81
2017-09-06T08:17:18.861Z,46.81
2017-09-06T08:18:18.947Z,47.20
2017-09-06T08:19:18.936Z,47.20
2017-09-06T08:20:19.055Z,47.30
2017-09-06T08:21:19.041Z,47.40
2017-09-06T08:22:40.109Z,47.38
2017-09-06T08:23:19.147Z,47.96
2017-09-06T08:24:19.213Z,48.15
2017-09-06T08:25:19.219Z,48.05
2017-09-06T08:26:19.258Z,47.96
2017-09-06T08:27:19.321Z,47.96
2017-09-06T08:28:40.373Z,47.66
2017-09-06T08:29:19.412Z,47.57
2017-09-06T08:30:19.469Z,48.15
2017-09-06T08:31:19.498Z,48.54
2017-09-06T08:32:19.550Z,48.32
2017-09-06T08:33:20.469Z,48.25
2017-09-06T08:34:40.667Z,48.44
2017-09-06T08:35:19.699Z,48.35
2017-09-06T08:36:19.745Z,48.35
2017-09-06T08:37:19.809Z,48.44
2017-09-06T08:38:19.832Z,48.93
2017-09-06T08:39:20.067Z,48.42
2017-09-06T08:40:40.941Z,48.61
2017-09-06T08:41:19.960Z,48.44
2017-09-06T08:42:20.025Z,48.32
2017-09-06T08:43:20.059Z,48.52
2017-09-06T08:44:20.113Z,48.71
2017-09-06T08:45:20.153Z,48.61
2017-09-06T08:46:41.210Z,48.80
2017-09-06T08:47:20.251Z,48.90
2017-09-06T08:48:20.312Z,48.80
2017-09-06T08:49:20.331Z,48.71
2017-09-06T08:50:20.389Z,49.39
2017-09-06T08:51:20.446Z,49.29
2017-09-06T08:52:41.489Z,49.39
2017-09-06T08:53:20.526Z,49.29
2017-09-06T08:54:20.571Z,49.19
2017-09-06T08:55:21.504Z,49.19
2017-09-06T08:56:20.621Z,49.00
2017-09-06T08:57:20.666Z,49.19
2017-09-06T08:58:41.746Z,49.29
2017-09-06T08:59:20.785Z,49.00
2017-09-06T09:00:20.851Z,49.19
2017-09-06T09:01:20.853Z,49.39
2017-09-06T09:02:20.952Z,49.58
2017-09-06T09:03:20.947Z,49.58
2017-09-06T09:04:42.017Z,49.19
2017-09-06T09:05:21.048Z,49.00
2017-09-06T09:06:21.089Z,49.68
2017-09-06T09:07:21.153Z,49.58
2017-09-06T09:08:21.179Z,49.39
2017-09-06T09:09:21.236Z,49.29
2017-09-06T09:10:42.305Z,49.68
2017-09-06T09:11:21.332Z,49.68
2017-09-06T09:12:21.365Z,49.00
2017-09-06T09:13:21.438Z,49.10
2017-09-06T09:14:21.496Z,49.19
2017-09-06T09:15:21.517Z,49.00
2017-09-06T09:16:42.580Z,49.22
2017-09-06T09:17:21.598Z,49.61
2017-09-06T09:18:21.648Z,49.32
2017-09-06T09:19:21.694Z,49.12
2017-09-06T09:20:21.738Z,49.12
2017-09-06T09:21:21.786Z,48.93
2017-09-06T09:22:42.855Z,49.12
2017-09-06T09:23:21.877Z,48.73
2017-09-06T09:24:21.925Z,48.64
2017-09-06T09:25:21.970Z,47.86
2017-09-06T09:26:22.119Z,48.15
2017-09-06T09:27:22.071Z,47.96
2017-09-06T09:28:43.141Z,48.05
2017-09-06T09:29:22.157Z,48.15
2017-09-06T09:30:22.203Z,48.05
2017-09-06T09:31:22.315Z,47.96
2017-09-06T09:32:22.307Z,47.66
2017-09-06T09:33:22.340Z,47.57
2017-09-06T09:34:43.418Z,47.35
2017-09-06T09:35:22.434Z,47.06
2017-09-06T09:36:22.482Z,47.25
2017-09-06T09:37:22.530Z,47.35
2017-09-06T09:38:22.577Z,48.03
2017-09-06T09:39:22.620Z,47.25
2017-09-06T09:40:43.692Z,47.35
2017-09-06T09:41:22.715Z,47.45
2017-09-06T09:42:22.764Z,47.33
2017-09-06T09:43:22.854Z,47.35
2017-09-06T09:44:22.855Z,47.35
2017-09-06T09:45:22.901Z,46.86
2017-09-06T09:46:43.987Z,47.13
2017-09-06T09:47:22.996Z,46.96
2017-09-06T09:48:23.048Z,47.25
2017-09-06T09:49:23.092Z,47.83
2017-09-06T09:50:23.139Z,47.81
2017-09-06T09:51:23.183Z,47.91
2017-09-06T09:52:44.255Z,47.81
2017-09-06T09:53:23.272Z,48.42
2017-09-06T09:54:23.318Z,48.20
2017-09-06T09:55:23.370Z,48.32
2017-09-06T09:56:23.411Z,48.30
2017-09-06T09:57:23.470Z,47.55
2017-09-06T09:58:44.528Z,48.03
2017-09-06T09:59:23.623Z,48.03
2017-09-06T10:00:23.603Z,48.13
2017-09-06T10:01:24.661Z,47.83
2017-09-06T10:02:23.761Z,47.83
2017-09-06T10:03:23.747Z,47.16
2017-09-06T10:04:44.808Z,47.28
2017-09-06T10:05:23.831Z,47.28
2017-09-06T10:06:23.885Z,47.38
2017-09-06T10:07:23.926Z,47.47
2017-09-06T10:08:23.995Z,47.28
2017-09-06T10:09:24.038Z,47.38
2017-09-06T10:10:45.104Z,47.18
2017-09-06T10:11:24.109Z,47.38
2017-09-06T10:12:24.157Z,47.47
2017-09-06T10:13:24.205Z,47.38
2017-09-06T10:14:24.249Z,47.47
2017-09-06T10:15:24.299Z,47.38
2017-09-06T10:16:45.373Z,46.89
2017-09-06T10:17:24.395Z,46.89
2017-09-06T10:18:24.435Z,47.57
2017-09-06T10:19:24.479Z,47.18
2017-09-06T10:20:24.528Z,46.79
2017-09-06T10:21:24.573Z,47.08
2017-09-06T10:22:45.663Z,47.08
2017-09-06T10:23:24.671Z,47.18
2017-09-06T10:24:24.715Z,46.89
2017-09-06T10:25:24.763Z,47.08
2017-09-06T10:26:24.813Z,46.98
2017-09-06T10:27:24.857Z,46.69
2017-09-06T10:28:45.923Z,46.60
2017-09-06T10:29:24.950Z,46.77
2017-09-06T10:30:24.992Z,46.58
2017-09-06T10:31:25.041Z,46.19
2017-09-06T10:32:25.086Z,46.48
2017-09-06T10:33:25.132Z,46.38
2017-09-06T10:34:46.204Z,46.48
2017-09-06T10:35:25.229Z,46.77
2017-09-06T10:36:25.283Z,46.36
2017-09-06T10:37:25.322Z,47.42
2017-09-06T10:38:25.366Z,47.33
2017-09-06T10:39:25.420Z,47.52
2017-09-06T10:40:46.482Z,47.33
2017-09-06T10:41:25.513Z,47.35
2017-09-06T10:42:25.563Z,47.23
2017-09-06T10:43:25.599Z,47.52
2017-09-06T10:44:25.644Z,47.35
2017-09-06T10:45:25.696Z,47.42
2017-09-06T10:46:46.763Z,47.23
2017-09-06T10:47:25.784Z,47.33
2017-09-06T10:48:25.835Z,47.23
2017-09-06T10:49:25.879Z,47.33
2017-09-06T10:50:25.926Z,47.42
2017-09-06T10:51:25.968Z,47.52
2017-09-06T10:52:47.046Z,47.23
2017-09-06T10:53:26.063Z,47.23
2017-09-06T10:54:26.111Z,47.52
2017-09-06T10:55:26.157Z,47.23
2017-09-06T10:56:26.202Z,47.03
2017-09-06T10:57:26.247Z,47.33
2017-09-06T10:58:47.320Z,47.23
2017-09-06T10:59:26.339Z,47.33
2017-09-06T11:00:26.389Z,47.13
2017-09-06T11:01:26.435Z,47.13
2017-09-06T11:02:26.479Z,47.13
2017-09-06T11:03:26.588Z,47.52
2017-09-06T11:04:47.598Z,47.91
2017-09-06T11:05:26.620Z,47.33
2017-09-06T11:06:26.675Z,47.33
2017-09-06T11:07:26.811Z,47.52
2017-09-06T11:08:26.756Z,47.42
2017-09-06T11:09:26.805Z,47.25
2017-09-06T11:10:47.875Z,47.23
2017-09-06T11:11:26.896Z,47.33
2017-09-06T11:12:26.942Z,47.23
2017-09-06T11:13:26.992Z,47.33
2017-09-06T11:14:27.036Z,47.35
2017-09-06T11:15:27.079Z,47.16
2017-09-06T11:16:48.150Z,47.25
2017-09-06T11:17:27.172Z,47.35
2017-09-06T11:18:27.220Z,47.35
2017-09-06T11:19:27.268Z,47.35
2017-09-06T11:20:27.312Z,46.86
2017-09-06T11:21:27.359Z,47.16
2017-09-06T11:22:48.435Z,47.06
2017-09-06T11:23:27.454Z,47.06
2017-09-06T11:24:27.497Z,46.96
2017-09-06T11:25:27.544Z,47.08
2017-09-06T11:26:27.590Z,47.16
2017-09-06T11:27:27.664Z,47.08
2017-09-06T11:28:48.713Z,46.89
2017-09-06T11:29:27.733Z,46.41
2017-09-06T11:30:27.789Z,46.79
2017-09-06T11:31:27.823Z,46.98
2017-09-06T11:32:27.873Z,46.31
2017-09-06T11:33:27.915Z,47.08
2017-09-06T11:34:49.022Z,46.98
2017-09-06T11:35:28.008Z,46.41
2017-09-06T11:36:28.062Z,46.69
2017-09-06T11:37:28.103Z,46.79
2017-09-06T11:38:28.149Z,46.60
2017-09-06T11:39:28.199Z,46.50
2017-09-06T11:40:49.268Z,46.50
2017-09-06T11:41:28.291Z,46.79
2017-09-06T11:42:28.336Z,47.08
2017-09-06T11:43:28.381Z,46.31
2017-09-06T11:44:28.430Z,46.41
2017-09-06T11:45:28.550Z,46.79
2017-09-06T11:46:49.548Z,46.89
2017-09-06T11:47:28.581Z,47.08
2017-09-06T11:48:28.613Z,46.89
2017-09-06T11:49:28.662Z,46.69
2017-09-06T11:50:28.715Z,47.18
2017-09-06T11:51:28.764Z,47.18
2017-09-06T11:52:49.824Z,46.98
2017-09-06T11:53:28.852Z,46.60
2017-09-06T11:54:28.893Z,46.31
2017-09-06T11:55:28.941Z,46.50
2017-09-06T11:56:28.986Z,46.31
2017-09-06T11:57:29.044Z,46.60
2017-09-06T11:58:50.182Z,46.41
2017-09-06T11:59:29.125Z,46.60
2017-09-06T12:00:29.180Z,46.50
2017-09-06T12:01:29.226Z,46.50
2017-09-06T12:02:29.272Z,46.79
2017-09-06T12:03:29.317Z,46.31
2017-09-06T12:04:50.453Z,46.41
2017-09-06T12:05:29.417Z,46.31
2017-09-06T12:06:29.471Z,46.21
2017-09-06T12:07:29.535Z,46.60
2017-09-06T12:08:29.555Z,46.89
2017-09-06T12:09:29.623Z,47.08
2017-09-06T12:10:50.671Z,46.98
2017-09-06T12:11:29.690Z,46.79
2017-09-06T12:12:29.747Z,46.89
2017-09-06T12:13:29.783Z,46.98
2017-09-06T12:14:29.832Z,46.98
2017-09-06T12:15:29.878Z,46.89
2017-09-06T12:16:50.947Z,46.98
2017-09-06T12:17:29.969Z,46.79
2017-09-06T12:18:30.017Z,46.98
2017-09-06T12:19:30.068Z,46.91
2017-09-06T12:20:30.107Z,46.62
2017-09-06T12:21:30.160Z,46.41
2017-09-06T12:22:51.235Z,46.23
2017-09-06T12:23:30.316Z,46.42
2017-09-06T12:24:30.343Z,45.53
2017-09-06T12:25:30.401Z,46.11
2017-09-06T12:26:30.391Z,46.31
2017-09-06T12:27:30.436Z,46.41
2017-09-06T12:28:51.510Z,46.60
2017-09-06T12:29:30.532Z,46.41
2017-09-06T12:30:30.580Z,46.33
2017-09-06T12:31:30.627Z,46.33
2017-09-06T12:32:30.674Z,46.81
2017-09-06T12:33:30.719Z,47.01
2017-09-06T12:34:51.793Z,47.11
2017-09-06T12:35:31.505Z,47.20
2017-09-06T12:36:30.964Z,47.40
2017-09-06T12:37:30.911Z,47.11
2017-09-06T12:38:30.965Z,46.91
2017-09-06T12:39:31.050Z,47.11
2017-09-06T12:40:52.098Z,46.91
2017-09-06T12:41:31.097Z,47.20
2017-09-06T12:42:31.143Z,47.20
2017-09-06T12:43:31.193Z,47.59
2017-09-06T12:44:31.236Z,47.11
2017-09-06T12:45:31.285Z,47.49
2017-09-06T12:46:52.355Z,47.40
2017-09-06T12:47:31.378Z,47.49
2017-09-06T12:48:31.427Z,47.40
2017-09-06T12:49:31.472Z,47.59
2017-09-06T12:50:31.520Z,46.91
2017-09-06T12:51:31.565Z,47.40
2017-09-06T12:52:52.641Z,46.72
2017-09-06T12:53:31.660Z,47.59